Terminal Aerodrome Forecast
Issued by NWS

Home | Current Version | Previous Version | Text Only | Print | Product List | Glossary On
Versions: 1 2 3 4 5 6 7 8 9 10 11 12 13 14 15 16 17 18 19
084
FTUS43 KDLH 140532
TAFHIB
TAF
KHIB 140532Z 1406/1506 14005KT P6SM SCT150
     FM141200 15009KT P6SM OVC070
     FM141600 16010KT 6SM -SN SCT015 OVC025
     FM141800 16010KT 4SM -SN OVC015
     FM150100 17007KT 3SM -SN OVC015=

USA.gov is the U.S. government's official web portal to all federal, state and local government web resources and services.